sensor_id;sensor_type;location;lat;lon;timestamp;P1;durP1;ratioP1;P2;durP2;ratioP2
17784;SDS011;9016;53.582;10.062;2022-08-03T00:01:33;4.57;;;4.18;;
17784;SDS011;9016;53.582;10.062;2022-08-03T00:04:01;5.05;;;3.95;;
17784;SDS011;9016;53.582;10.062;2022-08-03T00:06:29;6.38;;;4.05;;
17784;SDS011;9016;53.582;10.062;2022-08-03T00:09:02;4.50;;;3.80;;
17784;SDS011;9016;53.582;10.062;2022-08-03T00:11:33;4.72;;;4.18;;
17784;SDS011;9016;53.582;10.062;2022-08-03T00:14:02;5.32;;;4.35;;
17784;SDS011;9016;53.582;10.062;2022-08-03T00:16:29;5.93;;;3.97;;
17784;SDS011;9016;53.582;10.062;2022-08-03T00:18:58;4.97;;;4.07;;
17784;SDS011;9016;53.582;10.062;2022-08-03T00:21:26;4.30;;;3.90;;
17784;SDS011;9016;53.582;10.062;2022-08-03T00:23:54;4.30;;;3.90;;
17784;SDS011;9016;53.582;10.062;2022-08-03T00:26:22;4.97;;;3.70;;
17784;SDS011;9016;53.582;10.062;2022-08-03T00:28:52;4.85;;;4.13;;
17784;SDS011;9016;53.582;10.062;2022-08-03T00:31:19;3.80;;;3.50;;
17784;SDS011;9016;53.582;10.062;2022-08-03T00:34:07;4.95;;;4.00;;
17784;SDS011;9016;53.582;10.062;2022-08-03T00:36:37;5.28;;;4.15;;
17784;SDS011;9016;53.582;10.062;2022-08-03T00:39:06;5.72;;;4.65;;
17784;SDS011;9016;53.582;10.062;2022-08-03T00:41:34;4.20;;;3.90;;
17784;SDS011;9016;53.582;10.062;2022-08-03T00:44:03;4.45;;;4.05;;
17784;SDS011;9016;53.582;10.062;2022-08-03T00:46:31;4.95;;;4.50;;
17784;SDS011;9016;53.582;10.062;2022-08-03T00:48:59;4.88;;;3.92;;
17784;SDS011;9016;53.582;10.062;2022-08-03T00:51:27;4.68;;;4.25;;
17784;SDS011;9016;53.582;10.062;2022-08-03T00:53:55;5.03;;;4.20;;
17784;SDS011;9016;53.582;10.062;2022-08-03T00:56:23;5.70;;;4.57;;
17784;SDS011;9016;53.582;10.062;2022-08-03T00:58:52;4.80;;;3.80;;
17784;SDS011;9016;53.582;10.062;2022-08-03T01:01:24;4.20;;;3.80;;
17784;SDS011;9016;53.582;10.062;2022-08-03T01:03:57;4.97;;;3.78;;
17784;SDS011;9016;53.582;10.062;2022-08-03T01:06:29;5.07;;;3.65;;
17784;SDS011;9016;53.582;10.062;2022-08-03T01:09:04;4.30;;;3.90;;
17784;SDS011;9016;53.582;10.062;2022-08-03T01:11:37;5.20;;;4.70;;
17784;SDS011;9016;53.582;10.062;2022-08-03T01:14:28;4.88;;;4.20;;
17784;SDS011;9016;53.582;10.062;2022-08-03T01:17:04;5.22;;;4.53;;
17784;SDS011;9016;53.582;10.062;2022-08-03T01:19:40;7.78;;;4.80;;
17784;SDS011;9016;53.582;10.062;2022-08-03T01:25:13;4.63;;;4.22;;
17784;SDS011;9016;53.582;10.062;2022-08-03T01:27:53;4.88;;;4.30;;
17784;SDS011;9016;53.582;10.062;2022-08-03T01:30:30;4.25;;;3.95;;
17784;SDS011;9016;53.582;10.062;2022-08-03T01:33:02;4.50;;;4.10;;
17784;SDS011;9016;53.582;10.062;2022-08-03T01:35:34;6.95;;;4.45;;
17784;SDS011;9016;53.582;10.062;2022-08-03T01:38:09;4.72;;;4.30;;
17784;SDS011;9016;53.582;10.062;2022-08-03T01:40:40;5.03;;;4.60;;
17784;SDS011;9016;53.582;10.062;2022-08-03T01:43:15;5.50;;;4.15;;
17784;SDS011;9016;53.582;10.062;2022-08-03T01:46:07;5.88;;;4.35;;
17784;SDS011;9016;53.582;10.062;2022-08-03T01:48:37;5.65;;;4.13;;
17784;SDS011;9016;53.582;10.062;2022-08-03T01:51:08;5.78;;;4.30;;
17784;SDS011;9016;53.582;10.062;2022-08-03T01:53:38;4.50;;;4.10;;
17784;SDS011;9016;53.582;10.062;2022-08-03T01:56:08;5.32;;;4.35;;
17784;SDS011;9016;53.582;10.062;2022-08-03T01:58:37;6.32;;;4.55;;
17784;SDS011;9016;53.582;10.062;2022-08-03T02:01:09;4.85;;;4.45;;
17784;SDS011;9016;53.582;10.062;2022-08-03T02:03:40;4.40;;;4.10;;
17784;SDS011;9016;53.582;10.062;2022-08-03T02:06:26;6.63;;;4.05;;
17784;SDS011;9016;53.582;10.062;2022-08-03T02:09:17;4.97;;;4.43;;
17784;SDS011;9016;53.582;10.062;2022-08-03T02:11:47;5.20;;;4.70;;
17784;SDS011;9016;53.582;10.062;2022-08-03T02:14:16;4.68;;;4.30;;
17784;SDS011;9016;53.582;10.062;2022-08-03T02:16:48;4.57;;;4.15;;
17784;SDS011;9016;53.582;10.062;2022-08-03T02:19:17;4.38;;;4.07;;
17784;SDS011;9016;53.582;10.062;2022-08-03T02:21:46;4.38;;;4.07;;
17784;SDS011;9016;53.582;10.062;2022-08-03T02:24:26;4.88;;;4.45;;
17784;SDS011;9016;53.582;10.062;2022-08-03T02:26:55;5.90;;;4.03;;
17784;SDS011;9016;53.582;10.062;2022-08-03T02:29:25;4.95;;;4.45;;
17784;SDS011;9016;53.582;10.062;2022-08-03T02:32:08;4.80;;;4.35;;
17784;SDS011;9016;53.582;10.062;2022-08-03T02:34:39;4.75;;;4.35;;
17784;SDS011;9016;53.582;10.062;2022-08-03T02:37:12;4.57;;;4.18;;
17784;SDS011;9016;53.582;10.062;2022-08-03T02:39:41;4.80;;;4.40;;
17784;SDS011;9016;53.582;10.062;2022-08-03T02:42:11;5.03;;;4.63;;
17784;SDS011;9016;53.582;10.062;2022-08-03T02:44:41;4.72;;;4.32;;
17784;SDS011;9016;53.582;10.062;2022-08-03T02:47:15;4.95;;;4.55;;
17784;SDS011;9016;53.582;10.062;2022-08-03T02:49:47;4.90;;;4.50;;
17784;SDS011;9016;53.582;10.062;2022-08-03T02:52:18;5.18;;;4.68;;
17784;SDS011;9016;53.582;10.062;2022-08-03T02:54:50;5.13;;;4.63;;
17784;SDS011;9016;53.582;10.062;2022-08-03T02:57:21;5.40;;;4.45;;
17784;SDS011;9016;53.582;10.062;2022-08-03T02:59:51;7.38;;;4.28;;
17784;SDS011;9016;53.582;10.062;2022-08-03T03:02:21;5.45;;;4.85;;
17784;SDS011;9016;53.582;10.062;2022-08-03T03:04:51;4.93;;;4.43;;
17784;SDS011;9016;53.582;10.062;2022-08-03T03:07:41;5.85;;;4.75;;
17784;SDS011;9016;53.582;10.062;2022-08-03T03:10:17;5.35;;;4.55;;
17784;SDS011;9016;53.582;10.062;2022-08-03T03:12:46;6.78;;;4.63;;
17784;SDS011;9016;53.582;10.062;2022-08-03T03:15:16;5.20;;;4.80;;
17784;SDS011;9016;53.582;10.062;2022-08-03T03:17:46;5.63;;;4.57;;
17784;SDS011;9016;53.582;10.062;2022-08-03T03:20:16;6.10;;;4.75;;
17784;SDS011;9016;53.582;10.062;2022-08-03T03:22:55;5.00;;;4.60;;
17784;SDS011;9016;53.582;10.062;2022-08-03T03:25:25;5.55;;;4.80;;
17784;SDS011;9016;53.582;10.062;2022-08-03T03:27:54;6.72;;;5.00;;
17784;SDS011;9016;53.582;10.062;2022-08-03T03:30:23;6.43;;;4.57;;
17784;SDS011;9016;53.582;10.062;2022-08-03T03:32:53;5.70;;;5.10;;
17784;SDS011;9016;53.582;10.062;2022-08-03T03:35:21;10.57;;;5.30;;
17784;SDS011;9016;53.582;10.062;2022-08-03T03:37:50;6.25;;;4.90;;
17784;SDS011;9016;53.582;10.062;2022-08-03T03:40:19;5.15;;;4.55;;
17784;SDS011;9016;53.582;10.062;2022-08-03T03:42:47;4.82;;;4.35;;
17784;SDS011;9016;53.582;10.062;2022-08-03T03:45:16;7.05;;;5.30;;
17784;SDS011;9016;53.582;10.062;2022-08-03T03:47:45;5.57;;;5.10;;
17784;SDS011;9016;53.582;10.062;2022-08-03T03:50:16;5.25;;;4.70;;
17784;SDS011;9016;53.582;10.062;2022-08-03T03:52:44;5.13;;;4.72;;
17784;SDS011;9016;53.582;10.062;2022-08-03T03:55:14;5.63;;;5.10;;
17784;SDS011;9016;53.582;10.062;2022-08-03T03:57:44;5.97;;;5.43;;
17784;SDS011;9016;53.582;10.062;2022-08-03T04:00:12;6.97;;;5.90;;
17784;SDS011;9016;53.582;10.062;2022-08-03T04:02:42;9.68;;;5.15;;
17784;SDS011;9016;53.582;10.062;2022-08-03T04:05:10;5.20;;;4.70;;
17784;SDS011;9016;53.582;10.062;2022-08-03T04:07:58;5.43;;;4.90;;
17784;SDS011;9016;53.582;10.062;2022-08-03T04:10:46;5.43;;;4.93;;
17784;SDS011;9016;53.582;10.062;2022-08-03T04:13:31;5.70;;;5.20;;
17784;SDS011;9016;53.582;10.062;2022-08-03T04:16:01;5.88;;;5.28;;
17784;SDS011;9016;53.582;10.062;2022-08-03T04:18:33;6.32;;;5.72;;
17784;SDS011;9016;53.582;10.062;2022-08-03T04:21:05;7.07;;;6.38;;
17784;SDS011;9016;53.582;10.062;2022-08-03T04:23:39;8.75;;;5.68;;
17784;SDS011;9016;53.582;10.062;2022-08-03T04:26:11;6.18;;;5.35;;
17784;SDS011;9016;53.582;10.062;2022-08-03T04:28:42;9.98;;;8.32;;
17784;SDS011;9016;53.582;10.062;2022-08-03T04:31:13;5.75;;;5.32;;
17784;SDS011;9016;53.582;10.062;2022-08-03T04:33:42;6.70;;;5.10;;
17784;SDS011;9016;53.582;10.062;2022-08-03T04:36:13;5.90;;;5.40;;
17784;SDS011;9016;53.582;10.062;2022-08-03T04:38:49;6.97;;;5.38;;
17784;SDS011;9016;53.582;10.062;2022-08-03T04:41:22;5.93;;;5.35;;
17784;SDS011;9016;53.582;10.062;2022-08-03T04:43:53;7.75;;;5.72;;
17784;SDS011;9016;53.582;10.062;2022-08-03T04:46:22;6.35;;;5.75;;
17784;SDS011;9016;53.582;10.062;2022-08-03T04:48:53;7.15;;;6.45;;
17784;SDS011;9016;53.582;10.062;2022-08-03T04:51:22;6.75;;;6.05;;
17784;SDS011;9016;53.582;10.062;2022-08-03T04:53:53;8.77;;;7.25;;
17784;SDS011;9016;53.582;10.062;2022-08-03T04:56:21;17.13;;;13.48;;
17784;SDS011;9016;53.582;10.062;2022-08-03T04:58:49;9.35;;;8.52;;
17784;SDS011;9016;53.582;10.062;2022-08-03T05:01:17;8.68;;;7.78;;
17784;SDS011;9016;53.582;10.062;2022-08-03T05:03:46;9.30;;;7.15;;
17784;SDS011;9016;53.582;10.062;2022-08-03T05:06:14;10.00;;;9.07;;
17784;SDS011;9016;53.582;10.062;2022-08-03T05:08:43;12.55;;;8.60;;
17784;SDS011;9016;53.582;10.062;2022-08-03T05:11:15;7.40;;;6.50;;
17784;SDS011;9016;53.582;10.062;2022-08-03T05:13:43;7.80;;;6.97;;
17784;SDS011;9016;53.582;10.062;2022-08-03T05:16:12;12.00;;;10.85;;
17784;SDS011;9016;53.582;10.062;2022-08-03T05:18:41;9.00;;;8.07;;
17784;SDS011;9016;53.582;10.062;2022-08-03T05:21:10;10.43;;;9.38;;
17784;SDS011;9016;53.582;10.062;2022-08-03T05:23:39;9.55;;;7.93;;
17784;SDS011;9016;53.582;10.062;2022-08-03T05:26:07;11.95;;;7.20;;
17784;SDS011;9016;53.582;10.062;2022-08-03T05:28:38;7.15;;;6.30;;
17784;SDS011;9016;53.582;10.062;2022-08-03T05:31:16;8.48;;;7.60;;
17784;SDS011;9016;53.582;10.062;2022-08-03T05:33:45;10.82;;;6.30;;
17784;SDS011;9016;53.582;10.062;2022-08-03T05:36:14;9.45;;;5.88;;
17784;SDS011;9016;53.582;10.062;2022-08-03T05:38:42;15.13;;;13.52;;
17784;SDS011;9016;53.582;10.062;2022-08-03T05:41:13;11.80;;;10.60;;
17784;SDS011;9016;53.582;10.062;2022-08-03T05:43:51;12.52;;;8.88;;
17784;SDS011;9016;53.582;10.062;2022-08-03T05:46:20;17.10;;;9.98;;
17784;SDS011;9016;53.582;10.062;2022-08-03T05:48:49;8.50;;;7.50;;
17784;SDS011;9016;53.582;10.062;2022-08-03T05:51:17;9.02;;;6.22;;
17784;SDS011;9016;53.582;10.062;2022-08-03T05:53:45;7.05;;;6.13;;
17784;SDS011;9016;53.582;10.062;2022-08-03T05:56:13;8.98;;;6.13;;
17784;SDS011;9016;53.582;10.062;2022-08-03T05:58:43;9.38;;;6.30;;
17784;SDS011;9016;53.582;10.062;2022-08-03T06:01:13;9.02;;;6.28;;
17784;SDS011;9016;53.582;10.062;2022-08-03T06:03:42;6.75;;;5.95;;
17784;SDS011;9016;53.582;10.062;2022-08-03T06:06:11;7.47;;;6.43;;
17784;SDS011;9016;53.582;10.062;2022-08-03T06:08:41;9.68;;;7.30;;
17784;SDS011;9016;53.582;10.062;2022-08-03T06:11:09;8.88;;;6.28;;
17784;SDS011;9016;53.582;10.062;2022-08-03T06:13:38;7.75;;;6.43;;
17784;SDS011;9016;53.582;10.062;2022-08-03T06:16:06;11.60;;;8.65;;
17784;SDS011;9016;53.582;10.062;2022-08-03T06:18:35;7.35;;;6.50;;
17784;SDS011;9016;53.582;10.062;2022-08-03T06:21:04;10.30;;;9.30;;
17784;SDS011;9016;53.582;10.062;2022-08-03T06:23:41;12.38;;;8.23;;
17784;SDS011;9016;53.582;10.062;2022-08-03T06:26:21;11.73;;;7.38;;
17784;SDS011;9016;53.582;10.062;2022-08-03T06:28:50;10.82;;;9.73;;
17784;SDS011;9016;53.582;10.062;2022-08-03T06:31:20;12.15;;;10.25;;
17784;SDS011;9016;53.582;10.062;2022-08-03T06:34:00;14.55;;;12.95;;
17784;SDS011;9016;53.582;10.062;2022-08-03T06:36:49;17.95;;;16.08;;
17784;SDS011;9016;53.582;10.062;2022-08-03T06:39:18;15.32;;;13.40;;
17784;SDS011;9016;53.582;10.062;2022-08-03T06:41:48;13.55;;;10.73;;
17784;SDS011;9016;53.582;10.062;2022-08-03T06:44:17;13.25;;;11.05;;
17784;SDS011;9016;53.582;10.062;2022-08-03T06:46:45;11.02;;;9.90;;
17784;SDS011;9016;53.582;10.062;2022-08-03T06:49:15;16.60;;;14.88;;
17784;SDS011;9016;53.582;10.062;2022-08-03T06:51:43;15.85;;;14.25;;
17784;SDS011;9016;53.582;10.062;2022-08-03T06:54:31;13.40;;;11.80;;
17784;SDS011;9016;53.582;10.062;2022-08-03T06:57:01;8.88;;;7.68;;
17784;SDS011;9016;53.582;10.062;2022-08-03T06:59:29;14.80;;;13.25;;
17784;SDS011;9016;53.582;10.062;2022-08-03T07:02:17;10.52;;;9.27;;
17784;SDS011;9016;53.582;10.062;2022-08-03T07:04:47;11.43;;;7.05;;
17784;SDS011;9016;53.582;10.062;2022-08-03T07:07:15;6.18;;;5.18;;
17784;SDS011;9016;53.582;10.062;2022-08-03T07:09:44;6.70;;;4.85;;
17784;SDS011;9016;53.582;10.062;2022-08-03T07:12:23;7.68;;;4.18;;
17784;SDS011;9016;53.582;10.062;2022-08-03T07:14:54;5.25;;;4.25;;
17784;SDS011;9016;53.582;10.062;2022-08-03T07:17:27;5.63;;;4.75;;
17784;SDS011;9016;53.582;10.062;2022-08-03T07:19:58;5.63;;;4.00;;
17784;SDS011;9016;53.582;10.062;2022-08-03T07:22:27;7.13;;;5.00;;
17784;SDS011;9016;53.582;10.062;2022-08-03T07:24:55;7.47;;;4.60;;
17784;SDS011;9016;53.582;10.062;2022-08-03T07:27:23;6.07;;;4.88;;
17784;SDS011;9016;53.582;10.062;2022-08-03T07:29:54;7.28;;;5.40;;
17784;SDS011;9016;53.582;10.062;2022-08-03T07:32:22;4.80;;;4.28;;
17784;SDS011;9016;53.582;10.062;2022-08-03T07:34:50;5.88;;;5.25;;
17784;SDS011;9016;53.582;10.062;2022-08-03T07:37:27;8.27;;;7.50;;
17784;SDS011;9016;53.582;10.062;2022-08-03T07:39:56;7.63;;;6.57;;
17784;SDS011;9016;53.582;10.062;2022-08-03T07:42:24;5.50;;;5.03;;
17784;SDS011;9016;53.582;10.062;2022-08-03T07:44:52;9.40;;;8.50;;
17784;SDS011;9016;53.582;10.062;2022-08-03T07:47:20;5.32;;;4.75;;
17784;SDS011;9016;53.582;10.062;2022-08-03T07:50:01;5.28;;;4.75;;
17784;SDS011;9016;53.582;10.062;2022-08-03T07:52:30;7.15;;;5.15;;
17784;SDS011;9016;53.582;10.062;2022-08-03T07:55:18;13.55;;;12.38;;
17784;SDS011;9016;53.582;10.062;2022-08-03T07:57:57;4.90;;;4.30;;
17784;SDS011;9016;53.582;10.062;2022-08-03T08:00:26;17.08;;;15.38;;
17784;SDS011;9016;53.582;10.062;2022-08-03T08:02:54;6.00;;;5.40;;
17784;SDS011;9016;53.582;10.062;2022-08-03T08:05:22;7.60;;;6.65;;
17784;SDS011;9016;53.582;10.062;2022-08-03T08:07:52;5.72;;;5.03;;
17784;SDS011;9016;53.582;10.062;2022-08-03T08:10:20;13.02;;;11.93;;
17784;SDS011;9016;53.582;10.062;2022-08-03T08:12:48;8.20;;;4.45;;
17784;SDS011;9016;53.582;10.062;2022-08-03T08:15:16;5.80;;;4.10;;
17784;SDS011;9016;53.582;10.062;2022-08-03T08:17:45;6.63;;;4.78;;
17784;SDS011;9016;53.582;10.062;2022-08-03T08:20:15;13.10;;;12.07;;
17784;SDS011;9016;53.582;10.062;2022-08-03T08:22:55;10.02;;;9.07;;
17784;SDS011;9016;53.582;10.062;2022-08-03T08:25:26;6.00;;;4.30;;
17784;SDS011;9016;53.582;10.062;2022-08-03T08:27:55;9.52;;;5.97;;
17784;SDS011;9016;53.582;10.062;2022-08-03T08:30:44;5.82;;;3.28;;
17784;SDS011;9016;53.582;10.062;2022-08-03T08:33:12;11.82;;;10.82;;
17784;SDS011;9016;53.582;10.062;2022-08-03T08:35:48;9.07;;;8.20;;
17784;SDS011;9016;53.582;10.062;2022-08-03T08:38:18;7.07;;;3.90;;
17784;SDS011;9016;53.582;10.062;2022-08-03T08:40:46;6.40;;;3.25;;
17784;SDS011;9016;53.582;10.062;2022-08-03T08:43:15;6.50;;;3.00;;
17784;SDS011;9016;53.582;10.062;2022-08-03T08:45:43;5.95;;;3.45;;
17784;SDS011;9016;53.582;10.062;2022-08-03T08:48:13;12.80;;;3.33;;
17784;SDS011;9016;53.582;10.062;2022-08-03T08:50:44;3.60;;;3.30;;
17784;SDS011;9016;53.582;10.062;2022-08-03T08:53:12;5.68;;;3.10;;
17784;SDS011;9016;53.582;10.062;2022-08-03T08:55:47;10.27;;;9.27;;
17784;SDS011;9016;53.582;10.062;2022-08-03T08:58:27;7.97;;;4.85;;
17784;SDS011;9016;53.582;10.062;2022-08-03T09:00:56;6.63;;;5.65;;
17784;SDS011;9016;53.582;10.062;2022-08-03T09:03:24;8.93;;;6.50;;
17784;SDS011;9016;53.582;10.062;2022-08-03T09:05:56;6.32;;;5.75;;
17784;SDS011;9016;53.582;10.062;2022-08-03T09:08:27;5.75;;;5.20;;
17784;SDS011;9016;53.582;10.062;2022-08-03T09:10:56;6.65;;;4.35;;
17784;SDS011;9016;53.582;10.062;2022-08-03T09:13:25;5.40;;;3.80;;
17784;SDS011;9016;53.582;10.062;2022-08-03T09:18:44;8.02;;;4.05;;
17784;SDS011;9016;53.582;10.062;2022-08-03T09:21:14;4.53;;;3.10;;
17784;SDS011;9016;53.582;10.062;2022-08-03T09:24:00;4.68;;;2.90;;
17784;SDS011;9016;53.582;10.062;2022-08-03T09:26:33;3.83;;;2.80;;
17784;SDS011;9016;53.582;10.062;2022-08-03T09:29:03;8.55;;;3.40;;
17784;SDS011;9016;53.582;10.062;2022-08-03T09:31:40;6.78;;;6.18;;
17784;SDS011;9016;53.582;10.062;2022-08-03T09:34:10;5.40;;;4.80;;
17784;SDS011;9016;53.582;10.062;2022-08-03T09:36:40;8.05;;;4.95;;
17784;SDS011;9016;53.582;10.062;2022-08-03T09:39:10;11.77;;;5.95;;
17784;SDS011;9016;53.582;10.062;2022-08-03T09:41:41;5.78;;;3.40;;
17784;SDS011;9016;53.582;10.062;2022-08-03T09:44:10;5.85;;;3.10;;
17784;SDS011;9016;53.582;10.062;2022-08-03T09:46:52;11.65;;;3.20;;
17784;SDS011;9016;53.582;10.062;2022-08-03T09:49:22;5.32;;;3.15;;
17784;SDS011;9016;53.582;10.062;2022-08-03T09:51:51;4.50;;;2.97;;
17784;SDS011;9016;53.582;10.062;2022-08-03T09:54:39;4.07;;;2.67;;
17784;SDS011;9016;53.582;10.062;2022-08-03T09:57:11;6.95;;;3.72;;
17784;SDS011;9016;53.582;10.062;2022-08-03T09:59:47;11.57;;;2.97;;
17784;SDS011;9016;53.582;10.062;2022-08-03T10:02:22;5.00;;;2.70;;
17784;SDS011;9016;53.582;10.062;2022-08-03T10:04:51;7.57;;;2.97;;
17784;SDS011;9016;53.582;10.062;2022-08-03T10:07:20;6.10;;;2.85;;
17784;SDS011;9016;53.582;10.062;2022-08-03T10:09:53;4.40;;;2.70;;
17784;SDS011;9016;53.582;10.062;2022-08-03T10:12:44;10.35;;;5.03;;
17784;SDS011;9016;53.582;10.062;2022-08-03T10:15:14;18.40;;;10.35;;
17784;SDS011;9016;53.582;10.062;2022-08-03T10:18:02;7.75;;;4.13;;
17784;SDS011;9016;53.582;10.062;2022-08-03T10:20:31;5.55;;;3.50;;
17784;SDS011;9016;53.582;10.062;2022-08-03T10:23:03;8.10;;;3.65;;
17784;SDS011;9016;53.582;10.062;2022-08-03T10:25:33;7.88;;;2.90;;
17784;SDS011;9016;53.582;10.062;2022-08-03T10:28:05;5.45;;;2.50;;
17784;SDS011;9016;53.582;10.062;2022-08-03T10:30:37;7.05;;;3.00;;
17784;SDS011;9016;53.582;10.062;2022-08-03T10:33:08;7.05;;;2.60;;
17784;SDS011;9016;53.582;10.062;2022-08-03T10:36:01;9.48;;;2.97;;
17784;SDS011;9016;53.582;10.062;2022-08-03T10:38:34;6.50;;;2.95;;
17784;SDS011;9016;53.582;10.062;2022-08-03T10:41:06;5.03;;;2.85;;
17784;SDS011;9016;53.582;10.062;2022-08-03T10:43:37;6.65;;;2.80;;
17784;SDS011;9016;53.582;10.062;2022-08-03T10:46:14;8.13;;;2.95;;
17784;SDS011;9016;53.582;10.062;2022-08-03T10:48:44;5.05;;;2.80;;
17784;SDS011;9016;53.582;10.062;2022-08-03T10:51:12;4.88;;;2.22;;
17784;SDS011;9016;53.582;10.062;2022-08-03T10:53:41;6.38;;;2.92;;
17784;SDS011;9016;53.582;10.062;2022-08-03T11:05:38;6.35;;;4.10;;
17784;SDS011;9016;53.582;10.062;2022-08-03T11:08:25;6.65;;;3.53;;
17784;SDS011;9016;53.582;10.062;2022-08-03T11:10:56;5.55;;;3.70;;
17784;SDS011;9016;53.582;10.062;2022-08-03T11:13:27;7.18;;;2.70;;
17784;SDS011;9016;53.582;10.062;2022-08-03T11:15:59;5.32;;;3.25;;
17784;SDS011;9016;53.582;10.062;2022-08-03T11:18:36;6.63;;;3.40;;
17784;SDS011;9016;53.582;10.062;2022-08-03T11:21:34;5.35;;;3.25;;
17784;SDS011;9016;53.582;10.062;2022-08-03T11:27:31;9.90;;;6.13;;
17784;SDS011;9016;53.582;10.062;2022-08-03T11:30:02;23.95;;;12.32;;
17784;SDS011;9016;53.582;10.062;2022-08-03T11:35:27;8.95;;;5.10;;
17784;SDS011;9016;53.582;10.062;2022-08-03T11:40:44;6.40;;;3.30;;
17784;SDS011;9016;53.582;10.062;2022-08-03T11:46:13;6.85;;;4.28;;
17784;SDS011;9016;53.582;10.062;2022-08-03T11:48:55;7.63;;;6.32;;
17784;SDS011;9016;53.582;10.062;2022-08-03T11:51:37;7.93;;;3.08;;
17784;SDS011;9016;53.582;10.062;2022-08-03T11:54:06;6.05;;;3.20;;
17784;SDS011;9016;53.582;10.062;2022-08-03T11:56:44;7.88;;;3.15;;
17784;SDS011;9016;53.582;10.062;2022-08-03T11:59:12;4.40;;;2.85;;
17784;SDS011;9016;53.582;10.062;2022-08-03T12:01:47;6.90;;;4.25;;
17784;SDS011;9016;53.582;10.062;2022-08-03T12:04:15;4.10;;;2.92;;
17784;SDS011;9016;53.582;10.062;2022-08-03T12:06:57;6.43;;;2.70;;
17784;SDS011;9016;53.582;10.062;2022-08-03T12:09:26;8.32;;;2.58;;
17784;SDS011;9016;53.582;10.062;2022-08-03T12:11:54;20.85;;;19.00;;
17784;SDS011;9016;53.582;10.062;2022-08-03T12:14:26;8.75;;;7.50;;
17784;SDS011;9016;53.582;10.062;2022-08-03T12:17:14;6.85;;;3.92;;
17784;SDS011;9016;53.582;10.062;2022-08-03T12:19:43;7.43;;;3.95;;
17784;SDS011;9016;53.582;10.062;2022-08-03T12:22:13;9.93;;;5.03;;
17784;SDS011;9016;53.582;10.062;2022-08-03T12:24:42;5.20;;;3.75;;
17784;SDS011;9016;53.582;10.062;2022-08-03T12:27:21;4.95;;;2.97;;
17784;SDS011;9016;53.582;10.062;2022-08-03T12:29:50;5.10;;;2.97;;
17784;SDS011;9016;53.582;10.062;2022-08-03T12:32:24;10.75;;;8.68;;
17784;SDS011;9016;53.582;10.062;2022-08-03T12:34:52;6.03;;;2.90;;
17784;SDS011;9016;53.582;10.062;2022-08-03T12:37:22;4.22;;;3.78;;
17784;SDS011;9016;53.582;10.062;2022-08-03T12:39:51;8.57;;;7.18;;
17784;SDS011;9016;53.582;10.062;2022-08-03T12:42:31;4.93;;;2.95;;
17784;SDS011;9016;53.582;10.062;2022-08-03T12:47:50;5.53;;;2.80;;
17784;SDS011;9016;53.582;10.062;2022-08-03T12:50:23;4.70;;;3.00;;
17784;SDS011;9016;53.582;10.062;2022-08-03T12:52:54;9.77;;;7.05;;
17784;SDS011;9016;53.582;10.062;2022-08-03T12:55:22;12.38;;;4.93;;
17784;SDS011;9016;53.582;10.062;2022-08-03T12:58:27;6.85;;;3.60;;
17784;SDS011;9016;53.582;10.062;2022-08-03T13:00:59;8.10;;;3.70;;
17784;SDS011;9016;53.582;10.062;2022-08-03T13:03:38;3.00;;;2.58;;
17784;SDS011;9016;53.582;10.062;2022-08-03T13:06:12;4.25;;;2.70;;
17784;SDS011;9016;53.582;10.062;2022-08-03T13:08:42;5.78;;;2.67;;
17784;SDS011;9016;53.582;10.062;2022-08-03T13:11:20;6.90;;;2.95;;
17784;SDS011;9016;53.582;10.062;2022-08-03T13:14:10;6.88;;;5.25;;
17784;SDS011;9016;53.582;10.062;2022-08-03T13:16:45;5.15;;;3.65;;
17784;SDS011;9016;53.582;10.062;2022-08-03T13:19:13;6.80;;;3.38;;
17784;SDS011;9016;53.582;10.062;2022-08-03T13:21:41;5.63;;;2.75;;
17784;SDS011;9016;53.582;10.062;2022-08-03T13:24:31;4.45;;;2.90;;
17784;SDS011;9016;53.582;10.062;2022-08-03T13:26:59;4.22;;;2.70;;
17784;SDS011;9016;53.582;10.062;2022-08-03T13:29:50;4.78;;;2.80;;
17784;SDS011;9016;53.582;10.062;2022-08-03T13:32:19;5.35;;;2.75;;
17784;SDS011;9016;53.582;10.062;2022-08-03T13:34:47;6.05;;;3.08;;
17784;SDS011;9016;53.582;10.062;2022-08-03T13:37:16;6.72;;;3.90;;
17784;SDS011;9016;53.582;10.062;2022-08-03T13:39:45;5.47;;;3.30;;
17784;SDS011;9016;53.582;10.062;2022-08-03T13:42:25;6.22;;;2.80;;
17784;SDS011;9016;53.582;10.062;2022-08-03T13:44:53;7.07;;;3.10;;
17784;SDS011;9016;53.582;10.062;2022-08-03T13:47:21;6.53;;;3.75;;
17784;SDS011;9016;53.582;10.062;2022-08-03T13:49:49;5.60;;;3.10;;
17784;SDS011;9016;53.582;10.062;2022-08-03T13:52:27;7.38;;;3.35;;
17784;SDS011;9016;53.582;10.062;2022-08-03T13:54:56;5.15;;;2.53;;
17784;SDS011;9016;53.582;10.062;2022-08-03T13:57:25;5.68;;;2.85;;
17784;SDS011;9016;53.582;10.062;2022-08-03T14:00:14;4.18;;;2.35;;
17784;SDS011;9016;53.582;10.062;2022-08-03T14:02:55;4.97;;;2.50;;
17784;SDS011;9016;53.582;10.062;2022-08-03T14:05:40;8.18;;;2.58;;
17784;SDS011;9016;53.582;10.062;2022-08-03T14:08:09;6.63;;;2.83;;
17784;SDS011;9016;53.582;10.062;2022-08-03T14:10:40;5.63;;;2.50;;
17784;SDS011;9016;53.582;10.062;2022-08-03T14:13:10;4.90;;;2.60;;
17784;SDS011;9016;53.582;10.062;2022-08-03T14:15:43;3.92;;;2.72;;
17784;SDS011;9016;53.582;10.062;2022-08-03T14:18:15;5.40;;;2.42;;
17784;SDS011;9016;53.582;10.062;2022-08-03T14:20:58;6.70;;;2.90;;
17784;SDS011;9016;53.582;10.062;2022-08-03T14:23:32;5.57;;;2.97;;
17784;SDS011;9016;53.582;10.062;2022-08-03T14:26:02;5.45;;;3.10;;
17784;SDS011;9016;53.582;10.062;2022-08-03T14:28:31;3.58;;;2.60;;
17784;SDS011;9016;53.582;10.062;2022-08-03T14:30:59;7.60;;;2.55;;
17784;SDS011;9016;53.582;10.062;2022-08-03T14:33:27;5.85;;;2.47;;
17784;SDS011;9016;53.582;10.062;2022-08-03T14:35:55;7.75;;;2.80;;
17784;SDS011;9016;53.582;10.062;2022-08-03T14:38:23;7.97;;;3.40;;
17784;SDS011;9016;53.582;10.062;2022-08-03T14:40:51;6.65;;;3.97;;
17784;SDS011;9016;53.582;10.062;2022-08-03T14:43:21;5.80;;;4.85;;
17784;SDS011;9016;53.582;10.062;2022-08-03T14:45:50;5.55;;;3.40;;
17784;SDS011;9016;53.582;10.062;2022-08-03T14:48:19;7.10;;;2.90;;
17784;SDS011;9016;53.582;10.062;2022-08-03T14:51:07;5.47;;;3.50;;
17784;SDS011;9016;53.582;10.062;2022-08-03T14:53:35;6.38;;;2.75;;
17784;SDS011;9016;53.582;10.062;2022-08-03T14:56:03;4.10;;;3.38;;
17784;SDS011;9016;53.582;10.062;2022-08-03T14:58:37;5.47;;;3.00;;
17784;SDS011;9016;53.582;10.062;2022-08-03T15:01:05;7.57;;;2.80;;
17784;SDS011;9016;53.582;10.062;2022-08-03T15:03:54;6.63;;;2.90;;
17784;SDS011;9016;53.582;10.062;2022-08-03T15:06:22;7.47;;;2.80;;
17784;SDS011;9016;53.582;10.062;2022-08-03T15:08:50;3.10;;;2.80;;
17784;SDS011;9016;53.582;10.062;2022-08-03T15:11:38;5.43;;;2.97;;
17784;SDS011;9016;53.582;10.062;2022-08-03T15:14:07;4.88;;;2.58;;
17784;SDS011;9016;53.582;10.062;2022-08-03T15:16:39;7.57;;;2.33;;
17784;SDS011;9016;53.582;10.062;2022-08-03T15:19:07;7.70;;;2.65;;
17784;SDS011;9016;53.582;10.062;2022-08-03T15:21:55;3.78;;;2.55;;
17784;SDS011;9016;53.582;10.062;2022-08-03T15:24:26;9.35;;;3.90;;
17784;SDS011;9016;53.582;10.062;2022-08-03T15:26:54;8.00;;;3.20;;
17784;SDS011;9016;53.582;10.062;2022-08-03T15:29:23;5.15;;;2.75;;
17784;SDS011;9016;53.582;10.062;2022-08-03T15:32:12;7.10;;;3.63;;
17784;SDS011;9016;53.582;10.062;2022-08-03T15:34:40;5.88;;;3.17;;
17784;SDS011;9016;53.582;10.062;2022-08-03T15:37:16;5.22;;;2.90;;
17784;SDS011;9016;53.582;10.062;2022-08-03T15:39:44;6.95;;;3.30;;
17784;SDS011;9016;53.582;10.062;2022-08-03T15:42:25;5.53;;;4.20;;
17784;SDS011;9016;53.582;10.062;2022-08-03T15:44:54;4.40;;;3.10;;
17784;SDS011;9016;53.582;10.062;2022-08-03T15:47:22;7.63;;;3.50;;